Portland, Oregon
Traffic Map
Current Weather Conditions
Portland, Oregon
Overcast Light Rain
Overcast
50°
Feels Like: 50°
Wind Chill: 50° Ceiling: 7000
Heat Index: 50° Visibility: 10mi
Dew Point: 49° Wind: 9mph
Humidity: 96% Direction: 120° (ESE)
Pressure: 29.98in Gusts: 0mph
Raw Report DataKPDX 181453Z 12008KT 10SM -RA SCT023 SCT029 OVC070 10/09 A2998 RMK AO2 SLP152 P0002 60002 T01000094 56017
Traffic Incident Summary
Active as of:
Severity:
Category:
InformationThere was an issue retrieving the traffic information for this location. Please try a different location or try again shortly.
Advertisements